Latest Weather Observations for Laverton

IDV60901

Issued at 8:31 pm EDT Friday 18 January 2019 (issued every 10 minutes, with the page automatically refreshed every 10 minutes)

About weather observations | Map of Melbourne area stations | Latest observations for Melbourne area | Other Formats
Station Details ID: 087031 Name: LAVERTON RAAF Lat: -37.86 Lon: 144.76 Height: 20.1 m
Data from the previous 72 hours. | See also: Recent months at Laverton
Date/Time
EDT
Temp
°C
App
Temp
°C
Dew
Point
°C
Rel
Hum
%
Delta-T
°C
Wind Press
QNH
hPa
Press
MSL
hPa
Rain since
9am
mm
Dir  Spd
km/h
Gust
km/h
Spd
kts
Gust
kts
18/08:30pm 20.7 21.0 17.1 80 2.2 SW 11 17 6 9 1013.6 1013.5 4.8
18/08:00pm 20.3 20.3 17.3 83 1.8 S 13 19 7 10 1013.1 1013.0 4.8
18/07:30pm 20.2 18.6 17.4 84 1.7 S 22 32 12 17 1012.2 1012.1 4.8
18/07:00pm 21.1 19.5 18.3 84 1.7 S 24 35 13 19 1011.1 1011.1 4.8
18/06:30pm 21.4 20.6 18.4 83 1.9 S 20 32 11 17 1010.5 1010.5 4.8
18/06:00pm 22.2 21.8 19.0 82 2.0 S 19 28 10 15 1010.0 1010.0 4.8
18/05:30pm 22.8 24.6 19.6 82 2.0 S 9 13 5 7 1010.1 1010.1 4.8
18/05:00pm 22.7 24.7 19.9 84 1.8 SSW 9 15 5 8 1010.5 1010.5 4.8
18/04:30pm 22.2 23.9 19.4 84 1.8 ESE 9 13 5 7 1009.1 1009.1 4.8
18/04:00pm 22.7 24.5 19.5 82 2.0 ESE 9 13 5 7 1008.9 1008.9 4.8
18/03:30pm 23.1 24.7 19.9 82 2.1 SSE 11 19 6 10 1008.7 1008.7 4.8
18/03:00pm 22.2 22.2 19.7 86 1.6 SSE 19 24 10 13 1008.6 1008.6 4.8
18/02:30pm 22.4 22.7 20.5 89 1.2 SSE 19 26 10 14 1009.1 1009.1 4.8
18/02:00pm 22.5 24.4 21.3 93 0.8 SE 13 24 7 13 1009.2 1009.2 4.8
18/01:30pm 22.6 24.4 21.1 91 1.0 SE 13 17 7 9 1009.1 1009.1 4.8
18/01:00pm 23.0 25.3 20.7 87 1.5 ESE 9 11 5 6 1008.2 1008.2 4.8
18/12:30pm 23.3 24.8 21.2 88 1.4 SSW 15 20 8 11 1008.4 1008.4 4.8
18/12:00pm 22.8 25.8 21.3 91 1.0 SE 7 9 4 5 1007.9 1007.9 4.8
18/11:57am 22.7 25.2 21.0 90 1.1 SE 9 13 5 7 1007.9 1007.9 4.6
18/11:34am 23.5 24.8 20.2 82 2.1 SSW 13 20 7 11 1009.7 1009.7 2.6
18/11:30am 24.1 25.4 20.2 79 2.5 S 13 17 7 9 1009.1 1009.1 1.4
18/11:00am 24.8 26.3 19.8 74 3.2 SW 11 17 6 9 1009.9 1009.9 1.2
18/10:53am 24.9 26.8 19.7 73 3.4 SW 9 13 5 7 1009.6 1009.6 1.2
18/10:35am 26.0 28.0 19.2 66 4.4 S 7 11 4 6 1008.7 1008.7 0.8
18/10:30am 26.4 27.5 18.0 60 5.3 SSE 9 13 5 7 1008.7 1008.7 0.0
18/10:00am 26.9 27.9 17.7 57 5.8 ENE 9 11 5 6 1007.6 1007.6 0.0
18/09:30am 27.0 27.0 17.2 55 6.1 SSW 13 22 7 12 1008.3 1008.3 0.0
18/09:00am 27.3 28.1 17.2 54 6.3 WNW 9 15 5 8 1008.7 1008.7 0.4
18/08:30am 26.5 26.5 17.3 57 5.8 NNW 13 17 7 9 1007.8 1007.8 0.4
18/08:00am 25.1 25.9 17.3 62 4.9 NNW 9 13 5 7 1007.2 1007.2 0.4
18/07:30am 23.4 24.5 17.2 68 3.8 NNW 7 11 4 6 1006.8 1006.8 0.4
18/07:00am 23.6 24.3 16.1 62 4.6 N 7 13 4 7 1006.7 1006.7 0.4
18/06:30am 23.4 23.5 16.4 64 4.3 NNW 11 17 6 9 1006.6 1006.6 0.4
18/06:00am 23.0 21.6 17.0 69 3.7 NNE 20 28 11 15 1006.5 1006.5 0.4
18/05:30am 22.4 21.9 17.8 75 2.9 NNE 17 22 9 12 1006.7 1006.7 0.4
18/05:00am 22.0 23.6 18.2 79 2.4 NNE 7 11 4 6 1007.4 1007.4 0.4
18/04:30am 21.9 22.5 18.7 82 2.0 N 13 15 7 8 1007.1 1007.1 0.4
18/04:00am 21.6 23.7 19.3 87 1.5 NE 7 11 4 6 1006.9 1006.9 0.4
18/03:30am 21.4 23.5 19.0 86 1.5 NNE 6 9 3 5 1007.3 1007.3 0.4
18/03:00am 21.6 23.0 18.6 83 1.9 ENE 9 11 5 6 1007.8 1007.8 0.4
18/02:30am 21.8 23.5 18.6 82 2.0 E 7 13 4 7 1009.0 1009.0 0.4
18/02:23am 21.7 22.3 18.5 82 2.0 ENE 13 19 7 10 1008.0 1008.0 0.2
18/02:11am 22.7 24.9 18.3 76 2.8 - 4 13 2 7 1009.8 1009.8 0.2
18/02:07am 23.1 23.7 17.8 72 3.3 - 11 33 6 18 1010.0 1010.0 0.2
18/02:00am 23.1 21.3 17.8 72 3.3 WNW 24 35 13 19 1012.2 1012.1 0.0
18/01:53am 23.1 23.4 17.8 72 3.3 W 13 24 7 13 1011.0 1011.0 0.0
18/01:30am 22.7 24.0 17.6 73 3.2 SW 7 11 4 6 1008.8 1008.8 0.0
18/01:00am 22.7 24.9 17.4 72 3.3 NNE 2 7 1 4 1008.9 1008.9 0.0
18/12:30am 22.6 23.5 17.5 73 3.2 NE 9 11 5 6 1008.8 1008.8 0.0
18/12:00am 22.9 24.4 18.0 74 3.1 ENE 7 9 4 5 1009.9 1009.9 0.0
 
Date/Time
EDT
Temp
°C
App
Temp
°C
Dew
Point
°C
Rel
Hum
%
Delta-T
°C
Wind Press
QNH
hPa
Press
MSL
hPa
Rain since
9am
mm
Dir  Spd
km/h
Gust
km/h
Spd
kts
Gust
kts
17/11:30pm 22.9 24.5 17.8 73 3.2 NE 6 9 3 5 1010.0 1010.0 0.0
17/11:00pm 22.9 23.7 17.4 71 3.4 E 9 11 5 6 1009.8 1009.8 0.0
17/10:30pm 23.6 24.8 16.9 66 4.1 SSE 6 7 3 4 1009.7 1009.7 0.0
17/10:00pm 24.2 24.4 16.7 63 4.6 SSW 11 17 6 9 1009.3 1009.3 0.0
17/09:30pm 25.1 24.9 16.8 60 5.1 S 13 20 7 11 1009.6 1009.6 0.0
17/09:00pm 26.4 25.9 17.7 58 5.5 S 17 24 9 13 1008.9 1008.9 0.0
17/08:30pm 31.0 28.4 15.0 38 9.8 SW 22 35 12 19 1008.0 1008.0 0.0
17/08:00pm 32.2 30.4 13.4 32 11.3 WNW 15 20 8 11 1007.2 1007.2 0.0
17/07:30pm 32.8 30.5 12.9 29 11.9 W 17 24 9 13 1007.0 1007.0 0.0
17/07:00pm 33.4 30.7 12.9 28 12.3 W 19 28 10 15 1006.6 1006.6 0.0
17/06:30pm 33.6 31.3 13.1 29 12.4 W 17 20 9 11 1006.3 1006.3 0.0
17/06:00pm 32.2 31.1 14.3 33 11.0 NW 13 19 7 10 1006.4 1006.4 0.0
17/05:30pm 32.6 31.0 13.8 32 11.4 NW 15 22 8 12 1006.4 1006.4 0.0
17/05:00pm 33.1 30.5 13.2 30 12.0 NW 19 24 10 13 1006.4 1006.4 0.0
17/04:30pm 33.6 29.9 12.6 28 12.6 NW 24 32 13 17 1006.6 1006.6 0.0
17/04:00pm 34.7 31.7 12.4 26 13.4 NW 20 33 11 18 1006.9 1006.9 0.0
17/03:30pm 33.2 31.4 13.3 30 12.0 W 15 20 8 11 1007.7 1007.7 0.0
17/03:00pm 33.7 28.1 13.2 29 12.4 SW 35 59 19 32 1008.6 1008.6 0.0
17/02:47pm 34.7 31.0 14.0 28 12.7 WSW 26 72 14 39 1008.5 1008.5 0.0
17/02:30pm 33.0 34.4 18.7 42 9.3 SW 9 15 5 8 1008.2 1008.2 0.0
17/02:00pm 29.8 31.7 19.8 55 6.6 SSW 9 17 5 9 1008.1 1008.1 0.0
17/01:30pm 29.3 30.6 19.3 55 6.5 S 11 19 6 10 1007.8 1007.8 0.0
17/01:00pm 27.4 28.0 19.5 62 5.1 ENE 15 22 8 12 1007.1 1007.1 0.0
17/12:30pm 24.7 25.7 18.6 69 3.9 E 11 19 6 10 1007.5 1007.5 0.0
17/12:00pm 24.0 25.2 19.1 74 3.1 SE 11 17 6 9 1008.9 1008.9 0.0
17/11:30am 24.0 25.7 19.3 75 3.0 ESE 9 11 5 6 1009.0 1009.0 0.0
17/11:00am 24.5 25.1 18.7 70 3.7 ENE 13 20 7 11 1007.8 1007.8 0.0
17/10:30am 23.6 24.7 18.0 71 3.5 NE 9 13 5 7 1009.1 1009.1 0.0
17/10:00am 23.1 25.4 18.6 76 2.8 W 4 6 2 3 1009.5 1009.5 0.0
17/09:30am 22.1 23.6 18.9 82 2.0 SW 9 13 5 7 1009.9 1009.9 0.0
17/09:00am 21.7 23.0 19.4 87 1.5 SW 11 15 6 8 1009.8 1009.8 0.0
17/08:30am 21.5 21.3 19.4 88 1.3 SW 19 24 10 13 1009.7 1009.7 0.0
17/08:00am 22.0 24.1 20.1 89 1.2 SW 9 20 5 11 1008.1 1008.1 0.0
17/07:30am 21.3 23.6 19.8 91 1.0 SW 7 13 4 7 1007.5 1007.5 0.0
17/07:00am 21.2 23.1 18.9 87 1.5 S 7 9 4 5 1006.8 1006.8 0.0
17/06:30am 21.2 23.2 18.8 86 1.5 NE 6 13 3 7 1006.3 1006.3 0.0
17/06:00am 20.1 20.6 18.4 90 1.1 ENE 13 17 7 9 1006.0 1006.0 0.0
17/05:30am 20.3 23.1 17.9 86 1.5 CALM 0 0 0 0 1007.5 1007.5 0.0
17/05:00am 20.7 22.1 17.3 81 2.1 WSW 6 9 3 5 1007.9 1007.9 0.0
17/04:30am 20.5 21.9 16.5 78 2.4 W 4 9 2 5 1007.9 1007.9 0.0
17/04:00am 20.6 21.5 16.6 78 2.4 SW 7 17 4 9 1007.5 1007.5 0.0
17/03:30am 20.2 21.1 16.6 80 2.2 S 7 15 4 8 1007.9 1007.9 0.0
17/03:00am 19.9 20.8 16.7 82 1.9 NW 7 9 4 5 1006.8 1006.8 0.0
17/02:30am 19.4 20.5 16.6 84 1.7 NW 6 7 3 4 1007.0 1007.0 0.0
17/02:00am 19.3 21.6 16.7 85 1.6 CALM 0 2 0 1 1007.2 1007.2 0.0
17/01:30am 19.0 19.8 16.4 85 1.6 ENE 7 9 4 5 1007.3 1007.3 0.0
17/01:00am 19.4 20.8 16.4 83 1.8 NNW 4 11 2 6 1008.2 1008.2 0.0
17/12:30am 19.7 21.6 16.7 83 1.8 NNW 2 7 1 4 1008.3 1008.3 0.0
17/12:00am 19.5 21.7 16.5 83 1.8 CALM 0 0 0 0 1008.3 1008.3 0.0
 
Date/Time
EDT
Temp
°C
App
Temp
°C
Dew
Point
°C
Rel
Hum
%
Delta-T
°C
Wind Press
QNH
hPa
Press
MSL
hPa
Rain since
9am
mm
Dir  Spd
km/h
Gust
km/h
Spd
kts
Gust
kts
16/11:30pm 19.7 21.1 16.5 82 1.9 SSE 4 9 2 5 1008.6 1008.6 0.0
16/11:00pm 20.1 21.8 16.3 79 2.3 SSE 2 7 1 4 1009.1 1009.1 0.0
16/10:30pm 20.2 21.2 16.4 79 2.3 SSE 6 9 3 5 1009.5 1009.5 0.0
16/10:00pm 21.0 21.8 16.4 75 2.8 W 7 11 4 6 1009.9 1009.9 0.0
16/09:30pm 21.5 22.1 16.7 74 2.9 W 9 15 5 8 1010.2 1010.2 0.0
16/09:00pm 21.4 21.7 17.0 76 2.7 SW 11 19 6 10 1010.5 1010.5 0.0
16/08:30pm 21.5 21.4 16.9 75 2.8 W 13 17 7 9 1010.6 1010.6 0.0
16/08:00pm 21.2 22.5 17.0 77 2.6 SSE 6 9 3 5 1010.4 1010.4 0.0
16/07:47pm 21.1 21.4 16.9 77 2.6 E 11 17 6 9 1009.9 1009.9 0.0
16/07:30pm 21.1 20.7 17.1 78 2.4 NE 15 24 8 13 1012.0 1011.9 0.0
16/07:00pm 20.7 21.3 16.7 78 2.4 ESE 9 13 5 7 1011.7 1011.6 0.0
16/06:30pm 20.8 21.9 16.6 77 2.5 ESE 6 15 3 8 1012.4 1012.3 0.0
16/06:00pm 20.8 20.8 16.2 75 2.8 ESE 11 19 6 10 1011.3 1011.3 0.0
16/05:47pm 21.1 21.0 16.1 73 3.0 SSW 11 17 6 9 1012.1 1012.0 0.0
16/05:30pm 21.2 21.3 16.4 74 2.9 SSW 11 22 6 12 1014.1 1014.0 0.0
16/05:00pm 20.9 21.3 16.3 75 2.8 SE 9 15 5 8 1012.8 1012.7 0.0
16/04:30pm 20.8 20.5 16.4 76 2.7 S 13 19 7 10 1013.3 1013.2 0.0
16/04:00pm 20.8 19.1 16.2 75 2.8 SSE 20 28 11 15 1013.0 1012.9 0.0
16/03:30pm 20.8 18.3 16.2 75 2.8 S 24 32 13 17 1012.9 1012.8 0.0
16/03:00pm 21.0 17.5 16.4 75 2.8 S 30 43 16 23 1012.5 1012.4 0.0
16/02:30pm 23.0 19.4 17.2 70 3.6 S 32 44 17 24 1012.2 1012.1 0.0
16/02:00pm 23.4 21.8 16.4 64 4.3 S 20 28 11 15 1011.0 1011.0 0.0
16/01:30pm 24.0 22.1 15.2 58 5.3 SSE 19 26 10 14 1010.7 1010.7 0.0
16/01:00pm 25.5 23.3 14.9 52 6.4 SSE 20 28 11 15 1010.8 1010.8 0.0
16/12:30pm 26.1 25.1 16.6 55 5.9 SSE 17 24 9 13 1010.7 1010.7 0.0
16/12:00pm 25.3 25.1 17.5 62 4.9 SSE 15 22 8 12 1010.7 1010.7 0.0
16/11:30am 24.2 23.9 17.4 65 4.2 SE 15 20 8 11 1010.6 1010.6 0.0
16/11:00am 25.4 25.8 17.3 61 5.1 SSE 11 17 6 9 1010.6 1010.6 0.0
16/10:30am 25.0 25.7 16.2 58 5.4 SW 7 15 4 8 1010.6 1010.6 0.0
16/10:00am 23.8 24.5 16.1 62 4.7 NE 7 11 4 6 1010.6 1010.6 0.0
16/09:30am 22.9 23.7 16.4 67 4.0 E 7 11 4 6 1011.0 1011.0 0.0
16/09:00am 22.2 23.5 17.1 73 3.1 S 6 9 3 5 1011.4 1011.4 0.0
16/08:30am 21.3 21.9 16.9 76 2.7 S 9 11 5 6 1011.3 1011.3 0.0
16/08:00am 20.6 21.7 17.0 80 2.2 SW 7 11 4 6 1011.3 1011.3 0.0
16/07:30am 19.9 21.0 17.1 84 1.7 WSW 7 9 4 5 1010.9 1010.9 0.0
16/07:00am 18.9 21.2 16.7 87 1.3 CALM 0 6 0 3 1010.4 1010.4 0.0
16/06:47am 18.8 19.9 16.6 87 1.3 WSW 6 7 3 4 1010.5 1010.5 0.0
16/06:30am 19.0 19.6 16.8 87 1.3 SSW 9 17 5 9 1010.4 1010.4 0.0
16/06:00am 19.4 19.5 17.5 89 1.2 SSW 13 19 7 10 1010.3 1010.3 0.0
16/05:30am 19.4 20.5 18.1 92 0.8 S 9 13 5 7 1010.1 1010.1 0.0
16/05:00am 19.4 20.6 18.2 93 0.7 SW 9 13 5 7 1010.1 1010.1 0.0
16/04:35am 19.3 20.2 17.6 90 1.0 SW 9 13 5 7 1010.1 1010.1 0.0
16/04:30am 19.2 20.0 17.2 88 1.2 SW 9 13 5 7 1010.2 1010.2 0.0
16/04:00am 18.7 20.6 15.8 83 1.7 CALM 0 0 0 0 1009.5 1009.5 0.0
16/03:30am 20.0 20.2 15.8 77 2.5 SW 9 13 5 7 1009.8 1009.8 0.0
16/03:00am 20.6 20.0 14.5 68 3.6 SW 11 15 6 8 1009.9 1009.9 0.0
16/02:30am 21.5 20.1 13.4 60 4.7 SSW 13 17 7 9 1010.3 1010.3 0.0
16/02:00am 21.8 20.0 14.4 63 4.3 S 17 22 9 12 1009.9 1009.9 0.0
16/01:30am 21.4 20.9 15.9 71 3.3 SSW 13 19 7 10 1009.5 1009.5 0.0
16/01:00am 21.0 21.7 14.4 66 3.9 SSW 4 7 2 4 1008.9 1008.9 0.0
16/12:30am 21.6 21.4 13.0 58 4.9 SW 6 9 3 5 1008.7 1008.7 0.0
16/12:00am 21.3 22.2 13.0 59 4.7 CALM 0 0 0 0 1008.8 1008.8 0.0
 
Date/Time
EDT
Temp
°C
App
Temp
°C
Dew
Point
°C
Rel
Hum
%
Delta-T
°C
Wind Press
QNH
hPa
Press
MSL
hPa
Rain since
9am
mm
Dir  Spd
km/h
Gust
km/h
Spd
kts
Gust
kts
15/11:30pm 21.0 21.9 12.9 60 4.6 CALM 0 0 0 0 1008.8 1008.8 0.0
15/11:00pm 21.4 22.3 12.8 58 4.9 CALM 0 0 0 0 1009.0 1009.0 0.0
15/10:30pm 22.4 23.3 12.9 55 5.4 CALM 0 0 0 0 1009.2 1009.2 0.0
15/10:00pm 23.3 24.0 12.3 50 6.3 CALM 0 6 0 3 1009.2 1009.2 0.0
15/09:30pm 23.1 24.1 13.3 54 5.7 CALM 0 0 0 0 1009.1 1009.1 0.0
15/09:00pm 24.1 25.0 13.0 50 6.4 CALM 0 0 0 0 1009.2 1009.2 0.0

Latest Capital City Observations: Canberra | Sydney | Melbourne | Brisbane | Adelaide | Perth | Hobart | Darwin

Other Formats:

Comma delimited format used in spreadsheet applications
http://www.bom.gov.au/fwo/IDV60901/IDV60901.94865.axf

JavaScript Object Notation format (JSON) in row-major order
http://www.bom.gov.au/fwo/IDV60901/IDV60901.94865.json